Time;durP1;ratioP1;P1;durP2;ratioP2;P2;SDS_P1;SDS_P2;PMS_P1;PMS_P2;Temp;Humidity;BMP_temperature;BMP_pressure;BME280_temperature;BME280_humidity;BME280_pressure;Samples;Min_cycle;Max_cycle;Signal;HPM_P1;HPM_P2
2023/05/22 00:01:05;;;;;;;15.00;13.57;;;17.90;99.90;;;;;;5018284;28;20484;-78
2023/05/22 00:03:33;;;;;;;16.03;13.50;;;17.90;99.90;;;;;;5017593;28;20450;-79
2023/05/22 00:06:01;;;;;;;15.70;14.00;;;17.90;99.90;;;;;;5018257;28;20453;-79
2023/05/22 00:08:28;;;;;;;14.53;13.03;;;17.80;99.90;;;;;;5017907;28;20457;-78
2023/05/22 00:10:55;;;;;;;14.63;12.50;;;17.80;99.90;;;;;;5017658;28;20495;-79
2023/05/22 00:13:21;;;;;;;15.77;14.13;;;17.80;99.90;;;;;;5017696;28;20467;-79
2023/05/22 00:15:49;;;;;;;16.43;14.00;;;17.80;99.90;;;;;;5017888;28;20460;-79
2023/05/22 00:18:16;;;;;;;16.13;14.47;;;17.80;99.90;;;;;;5018616;28;20457;-79
2023/05/22 00:20:45;;;;;;;15.87;14.07;;;17.80;99.90;;;;;;5018044;28;20540;-79
2023/05/22 00:23:13;;;;;;;15.57;14.00;;;17.80;99.90;;;;;;4999284;28;20517;-79
2023/05/22 00:25:41;;;;;;;15.70;13.43;;;17.80;99.90;;;;;;5000169;28;20458;-79
2023/05/22 00:28:07;;;;;;;15.23;13.73;;;17.80;99.90;;;;;;5019060;28;20449;-79
2023/05/22 00:30:34;;;;;;;15.37;13.87;;;17.80;99.90;;;;;;5018060;28;21150;-79
2023/05/22 00:33:02;;;;;;;13.90;12.50;;;17.80;99.90;;;;;;5019807;28;20468;-79
2023/05/22 00:35:29;;;;;;;16.37;14.67;;;17.80;99.90;;;;;;5020171;28;20463;-79
2023/05/22 00:37:56;;;;;;;15.77;14.17;;;17.90;99.90;;;;;;5021210;28;20854;-78
2023/05/22 00:40:25;;;;;;;15.40;13.77;;;17.80;99.90;;;;;;5020504;28;20512;-79
2023/05/22 00:42:51;;;;;;;14.83;13.33;;;17.90;99.90;;;;;;5019827;28;20477;-79
2023/05/22 00:45:18;;;;;;;16.17;14.50;;;17.90;99.90;;;;;;5020775;28;20461;-79
2023/05/22 00:47:46;;;;;;;13.90;12.37;;;17.80;99.90;;;;;;5019936;28;20461;-78
2023/05/22 00:50:13;;;;;;;15.37;13.27;;;17.80;99.90;;;;;;5020279;28;20857;-78
2023/05/22 00:52:43;;;;;;;15.50;14.00;;;17.90;99.90;;;;;;5019023;28;20860;-79
2023/05/22 00:55:11;;;;;;;15.27;13.10;;;17.80;99.90;;;;;;5018895;28;20460;-78
2023/05/22 00:57:40;;;;;;;15.30;13.73;;;17.90;99.90;;;;;;5017762;28;20465;-77
2023/05/22 01:00:09;;;;;;;13.87;12.50;;;17.80;99.90;;;;;;5000805;28;20472;-79
2023/05/22 01:02:37;;;;;;;15.03;13.47;;;17.80;99.90;;;;;;5017625;28;20527;-78
2023/05/22 01:05:05;;;;;;;15.90;13.60;;;17.80;99.90;;;;;;5017321;28;20521;-78
2023/05/22 01:07:36;;;;;;;14.20;12.73;;;17.80;99.90;;;;;;5017514;28;20462;-79
2023/05/22 01:10:03;;;;;;;13.97;12.57;;;17.80;99.90;;;;;;5018036;28;20490;-79
2023/05/22 01:12:38;;;;;;;15.63;13.63;;;17.80;99.90;;;;;;5022473;28;20477;-79
2023/05/22 01:15:16;;;;;;;13.40;12.10;;;17.70;99.90;;;;;;5020361;28;20467;-80
2023/05/22 01:17:55;;;;;;;14.40;13.00;;;17.70;99.90;;;;;;5001509;28;20487;-79
2023/05/22 01:20:29;;;;;;;14.67;12.90;;;17.70;99.90;;;;;;5003785;28;20824;-79
2023/05/22 01:23:30;;;;;;;15.40;13.93;;;17.60;99.90;;;;;;5020369;28;20847;-79
2023/05/22 01:26:41;;;;;;;12.80;11.60;;;17.60;99.90;;;;;;5021463;28;20449;-79
2023/05/22 01:29:39;;;;;;;16.33;13.63;;;17.50;99.90;;;;;;4961071;28;20451;-78
2023/05/22 01:32:12;;;;;;;14.20;12.70;;;17.50;99.90;;;;;;5021479;28;20471;-79
2023/05/22 01:34:45;;;;;;;15.97;14.37;;;17.40;99.90;;;;;;5021692;28;20467;-79
2023/05/22 01:37:14;;;;;;;14.17;12.77;;;17.40;99.90;;;;;;5023099;28;20453;-80
2023/05/22 01:39:41;;;;;;;15.70;12.90;;;17.40;99.90;;;;;;5021989;28;20456;-79
2023/05/22 01:42:08;;;;;;;13.03;11.70;;;17.30;99.90;;;;;;5021217;28;20527;-80
2023/05/22 01:44:35;;;;;;;14.30;12.87;;;17.30;99.90;;;;;;5021378;28;20460;-79
2023/05/22 01:47:04;;;;;;;13.77;12.30;;;17.30;99.90;;;;;;5015411;28;20539;-79
2023/05/22 01:49:32;;;;;;;15.50;13.90;;;17.30;99.90;;;;;;5022286;28;20488;-79
2023/05/22 01:52:08;;;;;;;15.03;13.53;;;17.30;99.90;;;;;;5021448;28;20476;-79
2023/05/22 01:54:41;;;;;;;14.47;13.00;;;17.30;99.90;;;;;;5021059;28;20511;-79
2023/05/22 01:57:15;;;;;;;14.90;13.33;;;17.20;99.90;;;;;;5021481;28;20489;-79
2023/05/22 01:59:47;;;;;;;14.03;12.63;;;17.20;99.90;;;;;;5021351;28;20457;-79
2023/05/22 02:02:16;;;;;;;16.00;14.40;;;17.20;99.90;;;;;;5021755;28;20868;-78
2023/05/22 02:04:48;;;;;;;14.77;13.27;;;17.20;99.90;;;;;;5020915;28;20464;-79
2023/05/22 02:07:19;;;;;;;16.13;14.17;;;17.10;99.90;;;;;;5021467;28;20458;-79
2023/05/22 02:09:47;;;;;;;15.27;13.67;;;17.10;99.90;;;;;;5021278;28;20463;-79
2023/05/22 02:12:14;;;;;;;14.43;13.03;;;17.10;99.90;;;;;;5021092;28;20568;-78
2023/05/22 02:14:43;;;;;;;14.80;13.30;;;17.10;99.90;;;;;;5021892;28;20453;-79
2023/05/22 02:17:10;;;;;;;16.90;14.73;;;17.00;99.90;;;;;;5012420;28;20519;-79
2023/05/22 02:19:37;;;;;;;14.90;13.40;;;17.00;99.90;;;;;;5022335;28;20516;-79
2023/05/22 02:22:08;;;;;;;14.50;13.00;;;17.00;99.90;;;;;;5020995;28;20467;-79
2023/05/22 02:24:35;;;;;;;14.77;12.50;;;17.00;99.90;;;;;;5020555;28;21047;-79
2023/05/22 02:27:02;;;;;;;15.53;14.00;;;17.00;99.90;;;;;;5021702;28;20494;-78
2023/05/22 02:29:29;;;;;;;15.40;13.80;;;17.00;99.90;;;;;;5021586;28;20457;-79
2023/05/22 02:31:56;;;;;;;15.20;13.70;;;17.00;99.90;;;;;;5022368;28;20506;-81
2023/05/22 02:34:23;;;;;;;15.07;13.00;;;16.90;99.90;;;;;;5020415;28;20459;-80
2023/05/22 02:36:49;;;;;;;16.27;13.00;;;17.00;99.90;;;;;;5021786;28;21032;-78
2023/05/22 02:39:18;;;;;;;15.47;13.63;;;17.00;99.90;;;;;;5020977;28;20550;-79
2023/05/22 02:41:45;;;;;;;14.20;12.70;;;17.00;99.90;;;;;;5020539;28;20560;-79
2023/05/22 02:44:12;;;;;;;14.57;12.87;;;17.00;99.90;;;;;;5021373;28;20464;-79
2023/05/22 02:46:38;;;;;;;15.10;13.53;;;17.00;99.90;;;;;;5021730;28;20515;-79
2023/05/22 02:49:05;;;;;;;15.67;13.77;;;17.00;99.90;;;;;;5021760;28;20491;-79
2023/05/22 02:51:32;;;;;;;13.67;12.20;;;17.00;99.90;;;;;;5021886;28;20530;-79
2023/05/22 02:53:59;;;;;;;14.00;12.60;;;17.00;99.90;;;;;;5020453;28;20988;-79
2023/05/22 02:56:28;;;;;;;15.70;14.00;;;17.00;99.90;;;;;;5021135;28;20526;-78
2023/05/22 02:58:55;;;;;;;14.13;12.73;;;16.90;99.90;;;;;;5022136;28;20470;-79
2023/05/22 03:01:21;;;;;;;14.83;13.33;;;16.90;99.90;;;;;;5020697;28;20940;-79
2023/05/22 03:03:49;;;;;;;15.07;13.57;;;16.90;99.90;;;;;;5021189;28;20901;-79
2023/05/22 03:06:16;;;;;;;14.50;13.00;;;16.90;99.90;;;;;;5021407;28;20502;-79
2023/05/22 03:08:43;;;;;;;15.23;13.50;;;16.90;99.90;;;;;;5021107;28;20459;-79
2023/05/22 03:11:10;;;;;;;14.50;12.97;;;16.90;99.90;;;;;;5020981;28;20900;-79
2023/05/22 03:13:38;;;;;;;17.83;13.83;;;16.90;99.90;;;;;;5020392;28;20530;-80
2023/05/22 03:16:05;;;;;;;17.33;14.07;;;16.90;99.90;;;;;;5020901;28;20531;-80
2023/05/22 03:18:32;;;;;;;15.40;13.80;;;16.80;99.90;;;;;;5020033;28;20460;-79
2023/05/22 03:20:59;;;;;;;15.50;13.70;;;16.80;99.90;;;;;;5020956;28;21035;-80
2023/05/22 03:23:26;;;;;;;14.30;12.67;;;16.80;99.90;;;;;;5019755;28;20458;-80
2023/05/22 03:25:53;;;;;;;15.03;13.60;;;16.80;99.90;;;;;;5019451;28;20514;-79
2023/05/22 03:28:20;;;;;;;15.53;13.93;;;16.80;99.90;;;;;;5018462;28;20550;-80
2023/05/22 03:30:48;;;;;;;15.00;13.53;;;16.80;99.90;;;;;;5019485;28;20487;-80
2023/05/22 03:33:15;;;;;;;14.67;13.23;;;16.80;99.90;;;;;;5017285;28;20457;-78
2023/05/22 03:35:43;;;;;;;16.80;13.47;;;16.70;99.90;;;;;;5015437;28;21216;-79
2023/05/22 03:38:10;;;;;;;15.27;13.77;;;16.70;99.90;;;;;;5015856;28;20460;-78
2023/05/22 03:40:37;;;;;;;17.00;14.67;;;16.70;99.90;;;;;;5017150;28;20454;-79
2023/05/22 03:43:03;;;;;;;16.03;14.33;;;16.70;99.90;;;;;;5016293;28;20467;-79
2023/05/22 03:45:30;;;;;;;15.30;13.80;;;16.70;99.90;;;;;;5017809;28;20539;-80
2023/05/22 03:47:59;;;;;;;14.40;12.80;;;16.70;99.90;;;;;;5018355;28;20455;-79
2023/05/22 03:50:25;;;;;;;16.00;14.37;;;16.70;99.90;;;;;;5016232;28;20456;-79
2023/05/22 03:52:52;;;;;;;14.40;12.83;;;16.70;99.90;;;;;;5014513;28;20560;-78
2023/05/22 03:55:19;;;;;;;14.87;13.10;;;16.70;99.90;;;;;;5014480;28;20557;-78
2023/05/22 03:57:46;;;;;;;15.27;13.77;;;16.70;99.90;;;;;;5014178;28;20455;-79
2023/05/22 04:00:15;;;;;;;19.10;13.80;;;16.70;99.90;;;;;;5014959;28;20452;-78
2023/05/22 04:02:49;;;;;;;13.83;12.33;;;16.70;99.90;;;;;;5017500;28;20519;-80
2023/05/22 04:05:17;;;;;;;14.70;13.20;;;16.70;99.90;;;;;;5016433;28;20470;-80
2023/05/22 04:07:44;;;;;;;14.80;13.23;;;16.70;99.90;;;;;;5019244;28;20827;-78
2023/05/22 04:10:11;;;;;;;16.00;14.30;;;16.70;99.90;;;;;;5018839;28;20455;-77
2023/05/22 04:12:38;;;;;;;15.33;13.83;;;16.70;99.90;;;;;;5018422;28;20577;-78
2023/05/22 04:15:06;;;;;;;15.87;14.27;;;16.80;99.90;;;;;;5019030;28;20461;-81
2023/05/22 04:17:33;;;;;;;17.67;15.57;;;16.80;99.90;;;;;;5019290;28;20543;-79
2023/05/22 04:20:00;;;;;;;15.77;14.17;;;16.80;99.90;;;;;;5018915;28;20487;-79
2023/05/22 04:22:29;;;;;;;16.37;14.70;;;16.80;99.90;;;;;;5011579;28;20540;-79
2023/05/22 04:24:56;;;;;;;16.43;14.73;;;16.90;99.90;;;;;;5020700;28;20484;-80
2023/05/22 04:27:23;;;;;;;15.13;13.53;;;16.90;99.90;;;;;;5020931;28;20450;-78
2023/05/22 04:29:50;;;;;;;17.53;15.73;;;16.90;99.90;;;;;;5023325;28;20451;-78
2023/05/22 04:32:20;;;;;;;16.80;15.10;;;17.00;99.90;;;;;;5022629;28;20500;-78
2023/05/22 04:34:48;;;;;;;17.30;15.60;;;17.00;99.90;;;;;;5024012;28;20480;-78
2023/05/22 04:37:15;;;;;;;15.63;14.03;;;17.00;99.90;;;;;;5022757;28;20515;-78
2023/05/22 04:39:43;;;;;;;16.83;15.13;;;17.00;99.90;;;;;;5023547;28;20491;-77
2023/05/22 04:42:09;;;;;;;17.77;15.87;;;17.10;99.90;;;;;;5022618;28;20472;-78
2023/05/22 04:44:37;;;;;;;17.30;15.50;;;17.20;99.90;;;;;;5021083;28;20555;-78
2023/05/22 04:47:06;;;;;;;16.13;14.43;;;17.20;99.90;;;;;;5021067;28;20458;-81
2023/05/22 04:49:33;;;;;;;16.43;14.73;;;17.20;99.90;;;;;;5019157;28;20461;-82
2023/05/22 04:52:03;;;;;;;16.97;15.27;;;17.30;99.90;;;;;;5019476;28;20500;-81
2023/05/22 04:54:30;;;;;;;18.37;16.47;;;17.30;99.90;;;;;;5018164;28;20460;-83
2023/05/22 04:56:58;;;;;;;18.87;16.97;;;17.40;99.90;;;;;;5023061;28;20894;-79
2023/05/22 04:59:25;;;;;;;18.43;16.63;;;17.40;99.90;;;;;;5023028;28;20451;-79
2023/05/22 05:01:52;;;;;;;17.83;16.03;;;17.50;99.90;;;;;;5024089;28;20484;-79
2023/05/22 05:04:18;;;;;;;18.07;16.17;;;17.50;99.90;;;;;;5023152;28;20462;-79
2023/05/22 05:06:45;;;;;;;16.90;15.20;;;17.60;99.90;;;;;;5021966;28;20854;-79
2023/05/22 05:09:12;;;;;;;18.90;17.00;;;17.60;99.90;;;;;;4990296;28;20467;-78
2023/05/22 05:11:39;;;;;;;17.60;15.83;;;17.70;99.90;;;;;;5005341;28;21209;-78
2023/05/22 05:14:07;;;;;;;22.10;18.50;;;17.70;99.90;;;;;;5017325;28;20462;-79
2023/05/22 05:16:34;;;;;;;18.87;16.97;;;17.80;99.90;;;;;;5014360;28;20992;-79
2023/05/22 05:19:02;;;;;;;18.73;16.90;;;17.90;99.90;;;;;;5008107;28;20458;-78
2023/05/22 05:21:30;;;;;;;20.60;18.37;;;18.00;99.90;;;;;;5006992;28;20858;-79
2023/05/22 05:23:57;;;;;;;20.00;18.10;;;18.00;99.90;;;;;;5021220;28;20512;-78
2023/05/22 05:26:23;;;;;;;19.20;17.40;;;18.10;99.90;;;;;;5019112;28;20460;-79
2023/05/22 05:28:50;;;;;;;20.53;18.43;;;18.10;99.90;;;;;;5019395;28;20442;-78
2023/05/22 05:31:19;;;;;;;20.60;18.47;;;18.20;99.90;;;;;;5019059;28;20500;-78
2023/05/22 05:33:46;;;;;;;20.60;18.43;;;18.20;99.90;;;;;;5019892;28;20465;-79
2023/05/22 05:36:13;;;;;;;20.30;18.10;;;18.20;99.90;;;;;;5020277;28;20521;-79
2023/05/22 05:38:40;;;;;;;22.27;18.80;;;18.30;99.90;;;;;;5018400;28;20901;-82
2023/05/22 05:41:10;;;;;;;19.53;17.20;;;18.30;99.90;;;;;;5023317;28;20560;-79
2023/05/22 05:43:37;;;;;;;20.53;18.10;;;18.30;99.90;;;;;;5021968;28;20460;-78
2023/05/22 05:46:04;;;;;;;20.37;18.37;;;18.40;99.90;;;;;;5009590;28;20530;-79
2023/05/22 05:48:33;;;;;;;20.47;18.37;;;18.40;99.90;;;;;;5004109;28;20455;-79
2023/05/22 05:50:59;;;;;;;21.00;18.83;;;18.50;99.90;;;;;;5007977;28;20477;-82
2023/05/22 05:53:28;;;;;;;21.43;18.67;;;18.50;99.90;;;;;;5016536;28;20462;-83
2023/05/22 05:55:55;;;;;;;21.80;19.23;;;18.50;99.90;;;;;;5010469;28;20518;-83
2023/05/22 05:58:22;;;;;;;21.37;19.10;;;18.60;99.90;;;;;;5010516;28;20512;-83
2023/05/22 06:00:48;;;;;;;19.30;17.40;;;18.60;99.90;;;;;;5010207;28;20492;-82
2023/05/22 06:03:16;;;;;;;21.00;18.90;;;18.70;99.90;;;;;;5018120;28;20465;-82
2023/05/22 06:05:45;;;;;;;19.27;17.27;;;18.70;99.90;;;;;;5015046;28;20518;-82
2023/05/22 06:08:12;;;;;;;21.13;18.83;;;18.70;99.90;;;;;;5009630;28;20445;-82
2023/05/22 06:10:39;;;;;;;20.67;18.47;;;18.70;99.90;;;;;;5021280;28;20438;-83
2023/05/22 06:13:06;;;;;;;23.93;21.63;;;18.70;99.90;;;;;;5028508;28;20549;-82
2023/05/22 06:15:33;;;;;;;22.87;20.43;;;18.70;99.90;;;;;;5030327;28;20457;-82
2023/05/22 06:18:01;;;;;;;24.13;21.73;;;18.80;99.90;;;;;;5029065;28;20865;-81
2023/05/22 06:20:28;;;;;;;26.00;23.20;;;18.70;99.90;;;;;;5031467;28;20523;-81
2023/05/22 06:22:56;;;;;;;26.17;23.43;;;18.80;99.90;;;;;;5029419;28;20476;-81
2023/05/22 06:25:24;;;;;;;24.27;21.67;;;18.80;99.90;;;;;;5019337;28;20530;-80
2023/05/22 06:27:51;;;;;;;23.73;21.33;;;18.80;99.90;;;;;;5028399;28;20449;-81
2023/05/22 06:30:18;;;;;;;25.33;22.70;;;18.90;99.90;;;;;;5017334;28;20478;-82
2023/05/22 06:32:45;;;;;;;23.50;21.27;;;18.90;99.90;;;;;;5018061;28;20581;-82
2023/05/22 06:35:12;;;;;;;24.33;21.13;;;19.00;99.90;;;;;;5026131;28;20489;-83
2023/05/22 06:37:41;;;;;;;21.83;19.60;;;19.00;99.90;;;;;;5021803;28;20827;-81
2023/05/22 06:40:10;;;;;;;22.60;20.20;;;19.10;99.90;;;;;;5016691;28;20457;-81
2023/05/22 06:42:37;;;;;;;24.73;21.80;;;19.10;99.90;;;;;;5014223;28;20476;-83
2023/05/22 06:45:04;;;;;;;21.33;18.97;;;19.10;99.90;;;;;;5015053;28;20929;-81
2023/05/22 06:47:31;;;;;;;22.57;19.27;;;19.20;99.90;;;;;;5015763;28;21004;-81
2023/05/22 06:49:58;;;;;;;21.83;19.60;;;19.30;99.90;;;;;;5020102;28;20552;-83
2023/05/22 06:52:25;;;;;;;22.30;19.70;;;19.40;99.90;;;;;;5017553;28;20497;-80
2023/05/22 06:54:52;;;;;;;21.50;19.30;;;19.40;99.90;;;;;;5018458;28;20493;-81
2023/05/22 06:57:22;;;;;;;21.30;19.10;;;19.50;99.90;;;;;;5015283;28;20457;-85
2023/05/22 06:59:49;;;;;;;21.33;19.00;;;19.60;99.90;;;;;;5010334;28;20473;-84
2023/05/22 07:02:16;;;;;;;23.17;20.87;;;19.60;99.90;;;;;;5013220;28;20544;-83
2023/05/22 07:04:43;;;;;;;22.97;20.67;;;19.70;99.90;;;;;;5011851;28;20533;-82
2023/05/22 07:07:10;;;;;;;28.20;18.77;;;19.80;99.90;;;;;;5015906;28;20465;-81
2023/05/22 07:09:36;;;;;;;20.53;18.33;;;19.90;99.90;;;;;;4997839;28;20465;-82
2023/05/22 07:12:04;;;;;;;21.60;19.27;;;20.00;99.90;;;;;;5008753;28;20547;-82
2023/05/22 07:14:32;;;;;;;23.93;18.80;;;20.20;99.90;;;;;;5009389;28;20538;-82
2023/05/22 07:16:59;;;;;;;21.53;19.30;;;20.30;99.90;;;;;;5009125;28;20897;-83
2023/05/22 07:19:25;;;;;;;21.60;19.40;;;20.50;99.90;;;;;;5010173;28;20550;-82
2023/05/22 07:21:52;;;;;;;20.73;18.83;;;20.70;99.90;;;;;;5011368;28;20482;-83
2023/05/22 07:24:21;;;;;;;23.67;21.17;;;20.80;99.90;;;;;;5011490;28;20454;-84
2023/05/22 07:26:48;;;;;;;21.57;19.27;;;20.90;99.90;;;;;;5012873;28;20454;-84
2023/05/22 07:29:15;;;;;;;22.50;20.30;;;21.00;99.90;;;;;;5010933;28;20461;-82
2023/05/22 07:31:46;;;;;;;22.57;20.27;;;21.10;99.90;;;;;;5010032;28;20498;-85
2023/05/22 07:34:12;;;;;;;22.77;19.97;;;21.10;99.90;;;;;;5011539;28;20537;-85
2023/05/22 07:36:39;;;;;;;19.77;17.77;;;21.10;99.90;;;;;;5004145;28;21019;-84
2023/05/22 07:39:07;;;;;;;20.87;18.77;;;21.10;99.90;;;;;;5010872;28;20455;-83
2023/05/22 07:41:33;;;;;;;22.60;20.23;;;21.00;99.90;;;;;;5017371;28;20481;-85
2023/05/22 07:44:00;;;;;;;20.93;18.83;;;20.80;99.90;;;;;;5020912;28;20469;-84
2023/05/22 07:46:27;;;;;;;20.30;16.80;;;20.90;99.90;;;;;;5016412;28;20549;-85
2023/05/22 07:48:55;;;;;;;19.73;17.73;;;20.90;99.90;;;;;;5007211;28;20542;-85
2023/05/22 07:51:25;;;;;;;20.37;18.37;;;21.00;99.90;;;;;;5007975;28;20485;-84
2023/05/22 07:53:51;;;;;;;19.57;17.63;;;21.10;99.90;;;;;;5014336;28;20485;-85
2023/05/22 07:56:18;;;;;;;19.00;17.10;;;21.20;99.90;;;;;;5014650;28;20483;-84
2023/05/22 07:58:47;;;;;;;20.40;18.50;;;21.30;99.90;;;;;;5019434;28;20464;-84
2023/05/22 08:01:15;;;;;;;22.83;17.27;;;21.40;99.90;;;;;;5017894;28;20571;-84
2023/05/22 08:03:42;;;;;;;19.43;17.50;;;21.40;99.90;;;;;;5018284;28;20457;-82
2023/05/22 08:06:10;;;;;;;19.10;17.10;;;21.60;99.90;;;;;;5031237;28;20524;-85
2023/05/22 08:08:37;;;;;;;16.90;15.30;;;21.70;99.90;;;;;;5026522;28;20477;-82
2023/05/22 08:11:04;;;;;;;17.77;15.90;;;21.80;99.90;;;;;;5015638;28;20601;-82
2023/05/22 08:13:31;;;;;;;17.13;15.40;;;22.00;99.90;;;;;;5005054;28;20490;-83
2023/05/22 08:15:58;;;;;;;18.53;16.73;;;22.30;83.00;;;;;;5004060;28;20462;-83
2023/05/22 08:18:26;;;;;;;15.73;14.13;;;22.50;34.80;;;;;;5016196;28;20536;-82
2023/05/22 08:20:53;;;;;;;17.40;15.70;;;22.80;1.00;;;;;;5013542;28;20533;-83
2023/05/22 08:23:21;;;;;;;16.40;14.60;;;23.10;1.00;;;;;;5012351;28;21190;-84
2023/05/22 08:25:49;;;;;;;16.63;14.93;;;23.40;1.00;;;;;;5002701;28;20456;-83
2023/05/22 08:28:15;;;;;;;18.13;15.50;;;23.80;1.00;;;;;;5007810;28;20461;-83
2023/05/22 08:30:42;;;;;;;19.50;17.43;;;24.00;1.00;;;;;;5018918;28;20458;-82
2023/05/22 08:33:10;;;;;;;16.80;15.20;;;24.10;1.00;;;;;;5019811;28;20485;-83
2023/05/22 08:35:37;;;;;;;16.73;15.07;;;24.30;1.00;;;;;;5022019;28;20472;-82
2023/05/22 08:38:04;;;;;;;17.63;15.83;;;24.50;1.00;;;;;;5013553;28;20473;-83
2023/05/22 08:40:36;;;;;;;20.33;17.57;;;24.60;99.90;;;;;;5025137;28;20454;-84
2023/05/22 08:43:04;;;;;;;17.17;15.37;;;24.60;99.90;;;;;;5011374;28;20449;-83
2023/05/22 08:45:32;;;;;;;17.30;15.57;;;24.60;1.00;;;;;;5002780;28;20486;-81
2023/05/22 08:48:03;;;;;;;19.70;16.57;;;24.90;1.00;;;;;;5005377;28;20465;-82
2023/05/22 08:50:30;;;;;;;21.63;18.97;;;24.90;99.90;;;;;;5013646;28;20457;-82
2023/05/22 08:53:01;;;;;;;19.67;17.40;;;25.00;99.90;;;;;;5009049;28;20492;-83
2023/05/22 08:55:29;;;;;;;20.30;18.20;;;25.20;99.90;;;;;;5005465;28;20458;-83
2023/05/22 08:57:58;;;;;;;18.13;16.23;;;25.50;99.90;;;;;;5007704;28;20456;-82
2023/05/22 09:00:25;;;;;;;19.93;18.07;;;25.80;99.90;;;;;;5016615;28;20463;-83
2023/05/22 09:02:54;;;;;;;18.97;16.97;;;26.00;64.70;;;;;;5003980;28;20509;-82
2023/05/22 09:05:25;;;;;;;20.70;18.50;;;26.20;1.00;;;;;;5000590;28;20466;-83
2023/05/22 09:07:52;;;;;;;20.17;18.07;;;26.40;99.90;;;;;;5002866;28;20458;-82
2023/05/22 09:10:19;;;;;;;22.80;20.57;;;26.50;1.00;;;;;;5006689;28;20974;-83
2023/05/22 09:13:04;;;;;;;24.07;21.47;;;26.60;1.00;;;;;;5014562;28;20606;-83
2023/05/22 09:15:31;;;;;;;28.00;21.27;;;26.90;1.00;;;;;;5003391;28;20455;-83
2023/05/22 09:17:59;;;;;;;27.80;22.50;;;27.30;99.90;;;;;;5014775;28;20473;-82
2023/05/22 09:20:26;;;;;;;22.47;19.00;;;27.30;99.90;;;;;;5003358;28;20583;-83
2023/05/22 09:22:52;;;;;;;23.40;21.03;;;27.80;99.90;;;;;;5008192;28;20474;-83
2023/05/22 09:25:20;;;;;;;19.33;17.43;;;28.30;99.90;;;;;;5003846;28;20457;-84
2023/05/22 09:27:47;;;;;;;19.57;17.57;;;28.80;99.90;;;;;;5011295;28;20467;-82
2023/05/22 09:30:17;;;;;;;18.90;17.00;;;29.40;99.90;;;;;;5009693;28;20482;-82
2023/05/22 09:32:45;;;;;;;19.57;17.50;;;29.70;1.00;;;;;;5006009;28;20490;-83
2023/05/22 09:35:12;;;;;;;18.43;16.10;;;30.20;1.00;;;;;;5009139;28;20836;-83
2023/05/22 09:37:40;;;;;;;18.90;17.00;;;30.60;1.00;;;;;;5012193;28;20549;-84
2023/05/22 09:40:13;;;;;;;17.37;15.87;;;30.80;1.00;;;;;;5013166;28;20463;-84
2023/05/22 09:42:44;;;;;;;16.10;14.53;;;31.40;1.00;;;;;;5016878;28;20469;-84
2023/05/22 09:45:13;;;;;;;16.83;15.13;;;32.10;1.00;;;;;;5010350;28;20504;-84
2023/05/22 09:47:41;;;;;;;16.27;14.70;;;32.40;1.00;;;;;;5005557;28;20537;-86
2023/05/22 09:50:14;;;;;;;17.40;15.73;;;32.60;1.00;;;;;;5015942;28;20998;-84
2023/05/22 09:52:44;;;;;;;15.87;14.37;;;33.10;1.00;;;;;;4998283;28;20483;-84
2023/05/22 09:55:13;;;;;;;16.73;15.03;;;33.60;1.00;;;;;;5017216;28;20456;-83
2023/05/22 09:57:43;;;;;;;19.67;18.07;;;34.00;99.90;;;;;;5011687;28;20463;-83
2023/05/22 10:00:14;;;;;;;17.23;15.77;;;33.90;99.90;;;;;;5001299;28;20458;-83
2023/05/22 10:02:51;;;;;;;19.57;17.67;;;33.30;99.90;;;;;;4999898;28;20474;-81
2023/05/22 10:05:21;;;;;;;21.30;19.50;;;32.80;99.90;;;;;;5000117;28;20454;-83
2023/05/22 10:07:50;;;;;;;20.03;18.33;;;32.60;99.90;;;;;;5010323;28;20449;-85
2023/05/22 10:10:19;;;;;;;20.60;18.70;;;32.80;99.90;;;;;;5010287;28;20454;-85
2023/05/22 10:12:52;;;;;;;20.70;19.00;;;33.30;99.90;;;;;;5014522;28;20485;-84
2023/05/22 10:15:22;;;;;;;20.23;18.43;;;32.70;99.90;;;;;;5000438;28;20462;-84
2023/05/22 10:17:51;;;;;;;20.13;18.43;;;33.10;99.90;;;;;;5014998;28;20454;-83
2023/05/22 10:20:18;;;;;;;22.70;20.77;;;33.60;99.90;;;;;;5009045;28;20514;-83
2023/05/22 10:22:48;;;;;;;24.77;22.67;;;33.00;99.90;;;;;;5006963;28;20545;-84
2023/05/22 10:25:17;;;;;;;19.20;17.40;;;32.90;99.90;;;;;;5015505;28;20806;-82
2023/05/22 10:27:45;;;;;;;21.63;19.80;;;32.70;99.90;;;;;;5018368;28;20836;-83
2023/05/22 10:30:24;;;;;;;24.77;22.67;;;32.80;99.90;;;;;;5021511;28;20449;-84
2023/05/22 10:32:57;;;;;;;22.03;20.13;;;33.00;99.90;;;;;;5014691;28;20497;-83
2023/05/22 10:35:30;;;;;;;27.17;24.77;;;33.50;99.90;;;;;;5001198;28;20522;-84
2023/05/22 10:38:10;;;;;;;21.13;19.20;;;34.00;99.90;;;;;;5003992;28;20486;-84
2023/05/22 10:40:37;;;;;;;21.93;20.03;;;35.20;99.90;;;;;;5017064;28;20529;-83
2023/05/22 10:43:07;;;;;;;21.63;19.83;;;36.10;99.90;;;;;;5010473;28;20453;-83
2023/05/22 10:45:36;;;;;;;22.47;20.57;;;37.00;99.90;;;;;;5018894;28;20471;-84
2023/05/22 10:48:07;;;;;;;24.20;22.10;;;37.40;99.90;;;;;;5020539;28;20461;-85
2023/05/22 10:50:34;;;;;;;22.17;20.27;;;37.50;99.90;;;;;;5018488;28;20467;-83
2023/05/22 10:53:21;;;;;;;27.73;25.37;;;38.20;99.90;;;;;;5018174;28;20508;-83
2023/05/22 10:55:55;;;;;;;21.30;19.43;;;38.50;99.90;;;;;;5005579;28;20893;-84
2023/05/22 10:58:27;;;;;;;21.60;19.70;;;38.90;99.90;;;;;;5003862;28;20963;-85
2023/05/22 11:01:13;;;;;;;21.50;19.77;;;39.20;99.90;;;;;;5012756;28;20493;-85
2023/05/22 11:03:55;;;;;;;21.17;19.30;;;39.00;99.90;;;;;;5009784;28;20452;-84
2023/05/22 11:06:36;;;;;;;20.67;18.97;;;39.00;99.90;;;;;;5006389;28;20458;-84
2023/05/22 11:09:26;;;;;;;20.33;18.33;;;39.60;99.90;;;;;;5011218;28;20517;-86
2023/05/22 11:12:13;;;;;;;20.73;19.03;;;40.20;99.90;;;;;;5015304;28;20538;-84
2023/05/22 11:14:44;;;;;;;20.50;18.63;;;40.10;99.90;;;;;;5008867;28;20515;-86
2023/05/22 11:17:12;;;;;;;20.07;18.47;;;40.00;99.90;;;;;;5022621;28;20454;-85
2023/05/22 11:19:41;;;;;;;24.73;22.73;;;40.30;99.90;;;;;;5018199;28;20459;-84
2023/05/22 11:22:08;;;;;;;19.60;17.90;;;40.40;99.90;;;;;;5013479;28;20477;-84
2023/05/22 11:24:37;;;;;;;23.43;21.33;;;40.50;99.90;;;;;;5020388;28;20546;-85
2023/05/22 11:27:06;;;;;;;23.27;21.33;;;40.70;99.90;;;;;;5019406;28;20546;-85
2023/05/22 11:29:34;;;;;;;23.57;21.67;;;41.00;99.90;;;;;;5008686;28;20450;-85
2023/05/22 11:32:02;;;;;;;26.87;24.70;;;41.20;99.90;;;;;;5017734;28;20542;-85
2023/05/22 11:34:28;;;;;;;23.07;21.17;;;41.60;99.90;;;;;;5020775;28;20553;-85
2023/05/22 11:36:59;;;;;;;23.17;21.27;;;41.50;99.90;;;;;;5027548;28;20465;-85
2023/05/22 11:39:26;;;;;;;25.13;23.10;;;41.50;99.90;;;;;;5012128;28;20489;-83
2023/05/22 11:41:54;;;;;;;23.17;21.20;;;41.40;99.90;;;;;;5015163;28;20506;-83
2023/05/22 11:44:21;;;;;;;22.80;20.80;;;41.90;99.90;;;;;;5007992;28;20468;-85
2023/05/22 11:46:47;;;;;;;27.60;25.23;;;42.20;99.90;;;;;;5019399;28;20991;-85
2023/05/22 11:49:16;;;;;;;21.93;20.13;;;41.10;99.90;;;;;;5009892;28;20514;-84
2023/05/22 11:51:42;;;;;;;26.27;23.93;;;41.10;99.90;;;;;;5009866;28;20513;-85
2023/05/22 11:54:11;;;;;;;21.60;19.63;;;41.40;99.90;;;;;;5006447;28;20509;-85
2023/05/22 11:56:37;;;;;;;20.23;18.30;;;41.60;99.90;;;;;;5016043;28;20458;-85
2023/05/22 11:59:04;;;;;;;24.13;22.13;;;42.10;99.90;;;;;;5008121;28;20525;-87
2023/05/22 12:01:32;;;;;;;24.80;22.80;;;41.90;99.90;;;;;;5014246;28;20564;-86
2023/05/22 12:03:59;;;;;;;23.37;21.33;;;42.00;99.90;;;;;;5007550;28;20486;-85
2023/05/22 12:06:26;;;;;;;21.83;20.03;;;42.10;99.90;;;;;;5021247;28;20529;-83
2023/05/22 12:08:52;;;;;;;22.33;20.47;;;41.10;99.90;;;;;;5018372;28;20537;-84
2023/05/22 12:11:22;;;;;;;23.70;21.63;;;40.40;99.90;;;;;;5009389;28;20478;-84
2023/05/22 12:13:50;;;;;;;22.83;20.93;;;41.10;99.90;;;;;;5007473;28;20500;-85
2023/05/22 12:16:20;;;;;;;24.30;22.13;;;41.70;99.90;;;;;;5012876;28;20504;-82
2023/05/22 12:18:47;;;;;;;19.90;18.30;;;42.30;99.90;;;;;;5014457;28;20450;-85
2023/05/22 12:21:14;;;;;;;21.93;20.13;;;42.70;99.90;;;;;;5015536;28;20532;-84
2023/05/22 12:23:48;;;;;;;19.97;18.27;;;43.00;99.90;;;;;;5007960;28;20561;-86
2023/05/22 12:26:15;;;;;;;17.60;16.10;;;43.00;99.90;;;;;;5010581;28;20461;-85
2023/05/22 12:28:44;;;;;;;21.50;19.73;;;43.40;99.90;;;;;;5002073;28;20529;-85
2023/05/22 12:31:11;;;;;;;19.10;17.53;;;42.90;99.90;;;;;;5011586;28;20485;-87
2023/05/22 12:33:39;;;;;;;19.90;18.23;;;43.20;99.90;;;;;;5012406;28;20520;-84
2023/05/22 12:36:08;;;;;;;19.60;18.00;;;43.30;99.90;;;;;;5014951;28;20450;-85